createdAt,value
2023-04-23T00:02:57.765Z,46.33
2023-04-23T00:06:05.764Z,44.71
2023-04-23T00:09:08.769Z,45.26
2023-04-23T00:12:12.132Z,47.48
2023-04-23T00:15:15.184Z,46.06
2023-04-23T00:18:18.094Z,46.29
2023-04-23T00:21:20.427Z,49.06
2023-04-23T00:24:23.242Z,49.56
2023-04-23T00:27:25.975Z,48.51
2023-04-23T00:30:28.974Z,48.63
2023-04-23T00:33:31.299Z,48.50
2023-04-23T00:36:33.859Z,48.76
2023-04-23T00:39:38.704Z,49.57
2023-04-23T00:42:41.848Z,51.12
2023-04-23T00:45:44.570Z,50.86
2023-04-23T00:48:47.779Z,52.21
2023-04-23T00:51:50.042Z,52.27
2023-04-23T00:54:53.995Z,50.86
2023-04-23T00:57:56.584Z,50.54
2023-04-23T01:00:59.581Z,52.39
2023-04-23T01:04:02.446Z,50.27
2023-04-23T01:07:05.376Z,52.30
2023-04-23T01:10:08.435Z,50.54
2023-04-23T01:13:13.345Z,50.71
2023-04-23T01:16:15.854Z,51.91
2023-04-23T01:19:18.532Z,52.59
2023-04-23T01:22:23.049Z,51.33
2023-04-23T01:25:26.123Z,53.83
2023-04-23T01:28:30.382Z,51.23
2023-04-23T01:31:33.327Z,52.34
2023-04-23T01:34:38.128Z,52.59
2023-04-23T01:37:42.294Z,51.69
2023-04-23T01:40:44.697Z,51.63
2023-04-23T01:43:47.280Z,51.48
2023-04-23T01:46:49.576Z,51.67
2023-04-23T01:49:52.213Z,52.96
2023-04-23T01:52:54.899Z,52.92
2023-04-23T01:55:58.274Z,53.04
2023-04-23T01:59:00.615Z,53.41
2023-04-23T02:02:03.298Z,52.61
2023-04-23T02:05:11.595Z,52.86
2023-04-23T02:08:14.145Z,52.92
2023-04-23T02:11:16.751Z,53.70
2023-04-23T02:14:19.546Z,53.91
2023-04-23T02:17:23.243Z,54.03
2023-04-23T02:20:26.180Z,54.60
2023-04-23T02:23:28.528Z,54.68
2023-04-23T02:26:31.464Z,53.51
2023-04-23T02:29:34.137Z,54.10
2023-04-23T02:32:37.446Z,55.48
2023-04-23T02:35:40.924Z,54.29
2023-04-23T02:38:45.557Z,54.14
2023-04-23T02:41:47.894Z,54.79
2023-04-23T02:44:50.509Z,53.98
2023-04-23T02:47:53.634Z,54.08
2023-04-23T02:50:56.538Z,53.96
2023-04-23T02:53:59.274Z,56.01
2023-04-23T02:57:02.245Z,55.69
2023-04-23T03:00:07.248Z,54.64
2023-04-23T03:03:12.508Z,54.81
2023-04-23T03:06:15.416Z,54.94
2023-04-23T03:09:18.182Z,56.38
2023-04-23T03:12:20.518Z,56.74
2023-04-23T03:15:23.274Z,56.35
2023-04-23T03:18:25.792Z,56.75
2023-04-23T03:21:28.552Z,55.72
2023-04-23T03:24:32.181Z,55.94
2023-04-23T03:27:35.291Z,55.88
2023-04-23T03:30:37.830Z,56.21
2023-04-23T03:33:40.507Z,57.24
2023-04-23T03:36:44.828Z,57.13
2023-04-23T03:39:47.654Z,57.78
2023-04-23T03:42:50.668Z,57.47
2023-04-23T03:45:54.274Z,56.85
2023-04-23T03:48:57.622Z,57.17
2023-04-23T03:52:00.589Z,57.04
2023-04-23T03:55:03.905Z,58.46
2023-04-23T03:58:06.836Z,57.85
2023-04-23T04:01:09.773Z,58.14
2023-04-23T04:04:12.910Z,56.66
2023-04-23T04:07:15.733Z,57.32
2023-04-23T04:10:18.358Z,56.84
2023-04-23T04:13:20.646Z,58.94
2023-04-23T04:16:23.328Z,57.39
2023-04-23T04:19:25.678Z,57.51
2023-04-23T04:22:29.675Z,56.75
2023-04-23T04:25:32.083Z,57.47
2023-04-23T04:28:36.395Z,59.17
2023-04-23T04:31:39.228Z,57.94
2023-04-23T04:34:41.950Z,57.97
2023-04-23T04:37:44.630Z,56.79
2023-04-23T04:40:49.196Z,56.90
2023-04-23T04:43:52.499Z,57.20
2023-04-23T04:46:55.202Z,57.00
2023-04-23T04:49:57.862Z,57.16
2023-04-23T04:53:00.599Z,57.32
2023-04-23T04:56:03.073Z,57.48
2023-04-23T04:59:05.859Z,57.60
2023-04-23T05:02:08.314Z,58.93
2023-04-23T05:05:11.070Z,58.34
2023-04-23T05:08:18.530Z,57.27
2023-04-23T05:11:29.502Z,57.26
2023-04-23T05:14:45.529Z,57.37
2023-04-23T05:17:53.387Z,57.26
2023-04-23T05:20:55.886Z,57.25
2023-04-23T05:23:58.447Z,57.00
2023-04-23T05:27:01.384Z,56.90
2023-04-23T05:30:06.565Z,56.98
2023-04-23T05:33:09.039Z,56.59
2023-04-23T05:36:11.668Z,56.51
2023-04-23T05:39:13.962Z,55.91
2023-04-23T05:42:16.580Z,55.83
2023-04-23T05:45:18.942Z,54.46
2023-04-23T05:48:21.525Z,53.83
2023-04-23T05:51:23.921Z,53.72
2023-04-23T05:54:26.478Z,53.29
2023-04-23T05:57:28.863Z,53.36
2023-04-23T06:00:31.526Z,52.70
2023-04-23T06:03:34.922Z,53.23
2023-04-23T06:06:37.435Z,52.75
2023-04-23T06:09:40.035Z,52.62
2023-04-23T06:12:42.492Z,51.74
2023-04-23T06:15:45.183Z,51.21
2023-04-23T06:18:47.628Z,51.22
2023-04-23T06:21:51.192Z,51.18
2023-04-23T06:24:53.560Z,50.00
2023-04-23T06:27:58.226Z,49.86
2023-04-23T06:31:02.689Z,48.53
2023-04-23T06:34:05.544Z,48.42
2023-04-23T06:37:08.733Z,48.84
2023-04-23T06:40:11.546Z,47.64
2023-04-23T06:43:14.629Z,46.39
2023-04-23T06:46:21.403Z,47.12
2023-04-23T06:49:23.756Z,47.21
2023-04-23T06:52:27.146Z,46.75
2023-04-23T06:55:29.542Z,47.84
2023-04-23T06:58:32.376Z,47.21
2023-04-23T07:01:35.652Z,45.74
2023-04-23T07:04:38.426Z,45.94
2023-04-23T07:07:43.479Z,45.90
2023-04-23T07:10:46.506Z,45.66
2023-04-23T07:13:48.868Z,43.90
2023-04-23T07:16:51.877Z,44.23
2023-04-23T07:19:54.256Z,44.94
2023-04-23T07:23:00.178Z,41.58
2023-04-23T07:26:04.271Z,41.96
2023-04-23T07:29:08.026Z,42.62
2023-04-23T07:32:10.390Z,39.43
2023-04-23T07:35:13.123Z,38.51
2023-04-23T07:38:15.474Z,37.08
2023-04-23T07:41:18.394Z,37.24
2023-04-23T07:44:20.829Z,37.20
2023-04-23T07:47:23.633Z,38.61
2023-04-23T07:50:26.158Z,37.13
2023-04-23T07:53:29.260Z,37.14
2023-04-23T07:56:32.583Z,35.39
2023-04-23T07:59:35.215Z,34.65
2023-04-23T08:02:37.728Z,34.44
2023-04-23T08:05:41.454Z,35.05
2023-04-23T08:08:44.556Z,33.32
2023-04-23T08:11:48.390Z,32.04
2023-04-23T08:14:51.007Z,32.03
2023-04-23T08:17:54.675Z,30.91
2023-04-23T08:20:57.561Z,31.98
2023-04-23T08:24:00.365Z,30.39
2023-04-23T08:27:02.984Z,30.41
2023-04-23T08:30:06.906Z,30.03
2023-04-23T08:33:09.169Z,29.86
2023-04-23T08:36:11.793Z,30.10
2023-04-23T08:39:14.475Z,30.80
2023-04-23T08:42:46.037Z,29.04
2023-04-23T08:45:49.577Z,29.89
2023-04-23T08:48:53.380Z,30.12
2023-04-23T08:51:59.770Z,29.36
2023-04-23T08:55:07.531Z,28.60
2023-04-23T08:58:10.064Z,28.81
2023-04-23T09:01:12.756Z,29.37
2023-04-23T09:04:20.466Z,28.08
2023-04-23T09:07:23.420Z,27.77
2023-04-23T09:10:25.845Z,27.99
2023-04-23T09:13:31.917Z,27.54
2023-04-23T09:16:34.457Z,27.15
2023-04-23T09:19:39.757Z,25.96
2023-04-23T09:22:49.942Z,25.74
2023-04-23T09:25:52.742Z,26.15
2023-04-23T09:28:55.996Z,26.13
2023-04-23T09:32:10.340Z,24.73
2023-04-23T09:35:17.666Z,25.42
2023-04-23T09:38:20.539Z,24.05
2023-04-23T09:41:25.563Z,25.60
2023-04-23T09:44:32.615Z,24.16
2023-04-23T09:47:38.653Z,23.40
2023-04-23T09:50:41.376Z,25.21
2023-04-23T09:53:44.225Z,25.10
2023-04-23T09:56:51.581Z,23.65
2023-04-23T10:00:07.334Z,23.13
2023-04-23T10:03:16.375Z,25.54
2023-04-23T10:06:36.882Z,23.51
2023-04-23T10:09:42.185Z,24.07
2023-04-23T10:12:54.374Z,22.35
2023-04-23T10:16:10.282Z,25.37
2023-04-23T10:19:23.787Z,24.96
2023-04-23T10:22:29.479Z,23.11
2023-04-23T10:25:32.748Z,22.30
2023-04-23T10:28:36.374Z,23.03
2023-04-23T10:31:39.436Z,24.92
2023-04-23T10:34:42.508Z,24.07
2023-04-23T10:37:46.635Z,23.41
2023-04-23T10:40:51.027Z,24.09
2023-04-23T10:43:54.037Z,24.31
2023-04-23T10:47:00.651Z,24.44
2023-04-23T10:50:19.509Z,23.83
2023-04-23T10:53:21.949Z,22.31
2023-04-23T10:56:28.148Z,23.78
2023-04-23T10:59:32.281Z,22.70
2023-04-23T11:02:44.938Z,23.04
2023-04-23T11:05:47.402Z,21.57
2023-04-23T11:08:54.299Z,22.97
2023-04-23T11:12:01.641Z,22.54
2023-04-23T11:15:15.480Z,21.78
2023-04-23T11:18:17.726Z,20.69
2023-04-23T11:21:20.560Z,20.93
2023-04-23T11:24:24.011Z,20.17
2023-04-23T11:27:26.959Z,22.79
2023-04-23T11:30:30.802Z,22.72
2023-04-23T11:33:33.400Z,21.33
2023-04-23T11:36:35.962Z,20.90
2023-04-23T11:39:41.256Z,19.98
2023-04-23T11:42:49.368Z,20.64
2023-04-23T11:45:52.136Z,19.51
2023-04-23T11:48:54.773Z,19.43
2023-04-23T11:52:01.302Z,21.30
2023-04-23T11:55:06.353Z,21.07
2023-04-23T11:58:08.904Z,22.81
2023-04-23T12:01:14.953Z,21.19
2023-04-23T12:04:25.664Z,22.56
2023-04-23T12:07:34.666Z,21.53
2023-04-23T12:10:46.893Z,22.01
2023-04-23T12:13:49.491Z,22.38
2023-04-23T12:16:52.293Z,21.75
2023-04-23T12:19:54.640Z,21.98
2023-04-23T12:23:04.729Z,21.75
2023-04-23T12:26:20.362Z,23.73
2023-04-23T12:29:23.431Z,25.00
2023-04-23T12:32:27.034Z,24.30
2023-04-23T12:35:43.831Z,23.36
2023-04-23T12:38:46.173Z,23.34
2023-04-23T12:41:54.258Z,23.36
2023-04-23T12:45:05.547Z,23.59
2023-04-23T12:48:08.340Z,24.58
2023-04-23T12:51:10.854Z,23.61
2023-04-23T12:54:13.511Z,23.60
2023-04-23T12:57:15.887Z,24.09
2023-04-23T13:00:18.670Z,24.20
2023-04-23T13:03:21.220Z,22.88
2023-04-23T13:06:23.960Z,22.91
2023-04-23T13:09:28.086Z,22.87
2023-04-23T13:12:30.987Z,24.86
2023-04-23T13:15:33.302Z,24.87
2023-04-23T13:18:35.927Z,24.37
2023-04-23T13:21:38.203Z,24.00
2023-04-23T13:24:40.795Z,23.74
2023-04-23T13:27:43.220Z,24.46
2023-04-23T13:30:45.811Z,24.13
2023-04-23T13:33:48.302Z,24.19
2023-04-23T13:36:51.081Z,24.07
2023-04-23T13:39:53.405Z,23.73
2023-04-23T13:42:56.050Z,24.20
2023-04-23T13:45:59.059Z,23.02
2023-04-23T13:49:01.733Z,22.92
2023-04-23T13:52:06.939Z,22.63
2023-04-23T13:55:10.430Z,23.68
2023-04-23T13:58:12.786Z,24.68
2023-04-23T14:01:15.846Z,24.81
2023-04-23T14:04:23.947Z,24.86
2023-04-23T14:07:26.416Z,24.93
2023-04-23T14:10:29.088Z,25.03
2023-04-23T14:13:32.834Z,24.54
2023-04-23T14:16:35.746Z,25.35
2023-04-23T14:19:38.086Z,24.02
2023-04-23T14:22:42.129Z,23.93
2023-04-23T14:25:46.836Z,24.24
2023-04-23T14:28:52.206Z,23.74
2023-04-23T14:31:54.652Z,25.01
2023-04-23T14:34:57.472Z,24.03
2023-04-23T14:38:00.191Z,25.29
2023-04-23T14:41:02.884Z,25.17
2023-04-23T14:44:05.249Z,24.46
2023-04-23T14:47:10.146Z,24.02
2023-04-23T14:50:12.512Z,25.23
2023-04-23T14:53:15.408Z,25.97
2023-04-23T14:56:17.883Z,25.98
2023-04-23T14:59:21.599Z,24.80
2023-04-23T15:02:24.130Z,24.72
2023-04-23T15:05:26.887Z,25.48
2023-04-23T15:08:29.302Z,24.77
2023-04-23T15:11:32.535Z,24.69
2023-04-23T15:14:37.578Z,25.83
2023-04-23T15:17:40.807Z,25.09
2023-04-23T15:20:44.388Z,24.94
2023-04-23T15:23:46.988Z,24.98
2023-04-23T15:26:49.676Z,25.39
2023-04-23T15:29:52.322Z,24.97
2023-04-23T15:32:57.975Z,24.94
2023-04-23T15:36:00.663Z,25.63
2023-04-23T15:39:03.242Z,26.21
2023-04-23T15:42:06.026Z,26.24
2023-04-23T15:45:09.419Z,26.47
2023-04-23T15:48:11.976Z,26.21
2023-04-23T15:51:14.371Z,26.12
2023-04-23T15:54:17.268Z,26.72
2023-04-23T15:57:19.918Z,26.93
2023-04-23T16:00:22.689Z,26.55
2023-04-23T16:03:25.707Z,26.63
2023-04-23T16:06:28.652Z,27.80
2023-04-23T16:09:32.743Z,26.68
2023-04-23T16:12:35.218Z,26.93
2023-04-23T16:15:37.959Z,27.50
2023-04-23T16:18:40.273Z,26.75
2023-04-23T16:21:42.964Z,27.42
2023-04-23T16:24:45.463Z,27.23
2023-04-23T16:27:48.482Z,27.74
2023-04-23T16:30:50.844Z,27.05
2023-04-23T16:33:55.866Z,27.58
2023-04-23T16:36:58.169Z,27.01
2023-04-23T16:40:02.173Z,27.63
2023-04-23T16:43:05.601Z,27.25
2023-04-23T16:46:10.617Z,27.72
2023-04-23T16:49:13.627Z,27.48
2023-04-23T16:52:16.213Z,27.35
2023-04-23T16:55:18.577Z,27.17
2023-04-23T16:58:23.359Z,27.14
2023-04-23T17:01:25.725Z,27.05
2023-04-23T17:04:28.755Z,27.42
2023-04-23T17:07:31.197Z,27.20
2023-04-23T17:10:33.837Z,27.54
2023-04-23T17:13:37.470Z,27.30
2023-04-23T17:16:40.142Z,27.83
2023-04-23T17:19:42.537Z,27.85
2023-04-23T17:22:45.114Z,28.62
2023-04-23T17:25:47.550Z,28.93
2023-04-23T17:28:50.242Z,28.50
2023-04-23T17:31:53.068Z,29.38
2023-04-23T17:35:06.317Z,29.10
2023-04-23T17:38:12.681Z,29.77
2023-04-23T17:41:16.941Z,29.85
2023-04-23T17:44:19.431Z,30.45
2023-04-23T17:47:22.119Z,30.27
2023-04-23T17:50:24.534Z,30.33
2023-04-23T17:53:27.186Z,30.37
2023-04-23T17:56:29.650Z,30.42
2023-04-23T17:59:32.323Z,31.07
2023-04-23T18:02:40.169Z,32.24
2023-04-23T18:05:43.282Z,30.69
2023-04-23T18:08:45.633Z,31.51
2023-04-23T18:11:48.328Z,31.08
2023-04-23T18:14:50.730Z,30.84
2023-04-23T18:17:55.748Z,32.69
2023-04-23T18:20:58.452Z,32.17
2023-04-23T18:24:01.084Z,32.40
2023-04-23T18:27:03.470Z,32.62
2023-04-23T18:30:08.340Z,32.40
2023-04-23T18:33:41.620Z,31.66
2023-04-23T18:36:44.896Z,32.41
2023-04-23T18:39:47.265Z,33.51
2023-04-23T18:42:49.873Z,32.80
2023-04-23T18:45:52.265Z,34.06
2023-04-23T18:49:06.079Z,34.62
2023-04-23T18:52:08.494Z,33.84
2023-04-23T18:55:11.113Z,35.39
2023-04-23T18:58:13.454Z,34.82
2023-04-23T19:01:16.447Z,34.34
2023-04-23T19:04:19.089Z,34.36
2023-04-23T19:07:21.933Z,34.75
2023-04-23T19:10:24.269Z,34.49
2023-04-23T19:13:26.926Z,34.41
2023-04-23T19:16:29.622Z,35.03
2023-04-23T19:19:35.229Z,35.04
2023-04-23T19:22:41.302Z,34.59
2023-04-23T19:25:44.624Z,34.83
2023-04-23T19:28:46.941Z,35.03
2023-04-23T19:31:49.666Z,34.97
2023-04-23T19:34:51.984Z,35.37
2023-04-23T19:37:54.616Z,34.64
2023-04-23T19:40:57.043Z,35.25
2023-04-23T19:43:59.636Z,35.38
2023-04-23T19:47:02.157Z,35.33
2023-04-23T19:50:09.966Z,35.59
2023-04-23T19:53:12.478Z,35.71
2023-04-23T19:56:15.279Z,36.06
2023-04-23T19:59:20.931Z,36.20
2023-04-23T20:02:23.920Z,35.45
2023-04-23T20:05:26.836Z,35.82
2023-04-23T20:08:41.376Z,35.49
2023-04-23T20:11:45.670Z,35.80
2023-04-23T20:14:48.119Z,35.85
2023-04-23T20:17:53.653Z,36.41
2023-04-23T20:20:56.147Z,36.30
2023-04-23T20:23:58.733Z,36.81
2023-04-23T20:27:01.594Z,36.77
2023-04-23T20:30:05.302Z,37.16
2023-04-23T20:33:08.551Z,36.58
2023-04-23T20:36:11.551Z,37.04
2023-04-23T20:39:14.057Z,36.69
2023-04-23T20:42:16.834Z,37.08
2023-04-23T20:45:20.648Z,36.80
2023-04-23T20:48:25.311Z,37.21
2023-04-23T20:51:33.193Z,37.40
2023-04-23T20:54:36.755Z,37.38
2023-04-23T20:57:39.079Z,37.32
2023-04-23T21:00:41.880Z,38.16
2023-04-23T21:03:44.285Z,37.97
2023-04-23T21:06:51.087Z,37.84
2023-04-23T21:09:53.437Z,37.79
2023-04-23T21:12:56.144Z,38.29
2023-04-23T21:15:58.543Z,37.75
2023-04-23T21:19:01.400Z,38.40
2023-04-23T21:22:03.762Z,38.28
2023-04-23T21:25:06.797Z,38.81
2023-04-23T21:28:10.123Z,38.16
2023-04-23T21:31:17.770Z,38.79
2023-04-23T21:34:21.326Z,38.50
2023-04-23T21:37:23.806Z,39.13
2023-04-23T21:40:26.076Z,38.39
2023-04-23T21:43:32.549Z,38.59
2023-04-23T21:46:34.889Z,38.96
2023-04-23T21:49:37.533Z,38.55
2023-04-23T21:52:42.988Z,38.50
2023-04-23T21:59:05.324Z,38.87
2023-04-23T22:02:08.037Z,38.87
2023-04-23T22:05:11.928Z,38.95
2023-04-23T22:08:16.522Z,39.47
2023-04-23T22:11:19.231Z,39.43
2023-04-23T22:14:21.622Z,39.11
2023-04-23T22:17:26.251Z,39.47
2023-04-23T22:20:30.617Z,39.50
2023-04-23T22:23:33.324Z,39.95
2023-04-23T22:26:36.185Z,39.62
2023-04-23T22:29:38.799Z,40.01
2023-04-23T22:32:41.130Z,40.06
2023-04-23T22:35:43.968Z,40.19
2023-04-23T22:38:46.357Z,40.22
2023-04-23T22:41:49.011Z,40.92
2023-04-23T22:44:51.455Z,40.44
2023-04-23T22:47:54.199Z,40.27
2023-04-23T22:50:57.619Z,40.04
2023-04-23T22:54:00.233Z,41.19
2023-04-23T22:57:03.016Z,41.24
2023-04-23T23:00:11.367Z,41.35
2023-04-23T23:03:13.979Z,41.06
2023-04-23T23:06:17.711Z,40.48
2023-04-23T23:09:20.156Z,40.61
2023-04-23T23:12:22.784Z,41.07
2023-04-23T23:15:25.080Z,40.99
2023-04-23T23:18:27.684Z,41.23
2023-04-23T23:21:30.238Z,41.43
2023-04-23T23:24:32.863Z,42.24
2023-04-23T23:27:35.149Z,41.35
2023-04-23T23:30:37.844Z,41.62
2023-04-23T23:33:40.195Z,41.64
2023-04-23T23:36:45.208Z,41.93
2023-04-23T23:39:47.807Z,41.82
2023-04-23T23:42:50.375Z,41.73
2023-04-23T23:45:52.906Z,42.08
2023-04-23T23:48:55.587Z,42.86
2023-04-23T23:51:58.147Z,42.67
2023-04-23T23:55:00.825Z,41.98
2023-04-23T23:58:03.204Z,41.94
